createdAt,value
2023-05-01T00:00:24.994Z,6.40
2023-05-01T00:00:57.667Z,6.50
2023-05-01T00:01:30.349Z,6.70
2023-05-01T00:02:02.988Z,6.70
2023-05-01T00:02:35.723Z,6.30
2023-05-01T00:03:08.496Z,6.50
2023-05-01T00:03:41.321Z,6.30
2023-05-01T00:04:14.210Z,6.20
2023-05-01T00:04:47.087Z,6.40
2023-05-01T00:05:19.811Z,6.40
2023-05-01T00:05:52.507Z,6.70
2023-05-01T00:06:25.204Z,6.50
2023-05-01T00:06:57.856Z,6.90
2023-05-01T00:07:30.538Z,6.80
2023-05-01T00:08:03.193Z,6.30
2023-05-01T00:08:35.882Z,6.80
2023-05-01T00:09:08.540Z,6.50
2023-05-01T00:09:41.210Z,6.50
2023-05-01T00:10:13.891Z,6.80
2023-05-01T00:10:46.575Z,6.50
2023-05-01T00:11:17.676Z,6.90
2023-05-01T00:11:50.320Z,6.50
2023-05-01T00:12:22.987Z,6.70
2023-05-01T00:12:55.654Z,6.20
2023-05-01T00:13:28.317Z,6.50
2023-05-01T00:14:00.996Z,6.40
2023-05-01T00:14:33.644Z,6.30
2023-05-01T00:15:06.332Z,7.10
2023-05-01T00:15:38.997Z,6.70
2023-05-01T00:16:11.730Z,6.60
2023-05-01T00:16:44.528Z,6.50
2023-05-01T00:17:17.209Z,6.70
2023-05-01T00:17:49.901Z,6.60
2023-05-01T00:18:22.568Z,6.80
2023-05-01T00:18:55.372Z,7.20
2023-05-01T00:19:28.042Z,6.90
2023-05-01T00:20:00.706Z,7.20
2023-05-01T00:20:33.377Z,7.00
2023-05-01T00:21:06.071Z,7.30
2023-05-01T00:21:38.730Z,6.70
2023-05-01T00:22:11.422Z,7.10
2023-05-01T00:22:44.098Z,6.70
2023-05-01T00:23:16.750Z,6.60
2023-05-01T00:23:49.423Z,6.50
2023-05-01T00:24:22.110Z,6.70
2023-05-01T00:24:54.762Z,6.40
2023-05-01T00:25:27.426Z,6.80
2023-05-01T00:26:00.159Z,6.70
2023-05-01T00:26:32.810Z,6.30
2023-05-01T00:27:05.467Z,6.50
2023-05-01T00:27:38.153Z,6.50
2023-05-01T00:28:10.840Z,6.60
2023-05-01T00:28:43.485Z,6.50
2023-05-01T00:29:16.154Z,6.40
2023-05-01T00:29:48.809Z,6.70
2023-05-01T00:30:21.485Z,6.60
2023-05-01T00:30:54.188Z,6.60
2023-05-01T00:31:26.877Z,6.50
2023-05-01T00:31:59.560Z,6.60
2023-05-01T00:32:32.224Z,6.50
2023-05-01T00:33:04.906Z,6.40
2023-05-01T00:33:37.582Z,6.50
2023-05-01T00:34:08.724Z,6.80
2023-05-01T00:34:41.385Z,6.70
2023-05-01T00:35:14.044Z,6.50
2023-05-01T00:35:46.751Z,6.60
2023-05-01T00:36:19.428Z,6.10
2023-05-01T00:36:52.091Z,6.60
2023-05-01T00:37:24.784Z,6.10
2023-05-01T00:37:57.438Z,6.70
2023-05-01T00:38:30.141Z,6.70
2023-05-01T00:39:02.782Z,6.50
2023-05-01T00:39:35.457Z,6.50
2023-05-01T00:40:08.128Z,6.50
2023-05-01T00:40:40.813Z,7.00
2023-05-01T00:41:13.494Z,6.90
2023-05-01T00:41:46.179Z,7.40
2023-05-01T00:42:18.827Z,6.80
2023-05-01T00:42:51.496Z,7.20
2023-05-01T00:43:24.235Z,7.10
2023-05-01T00:43:56.895Z,6.70
2023-05-01T00:44:29.571Z,6.70
2023-05-01T00:45:02.258Z,6.60
2023-05-01T00:45:34.952Z,6.70
2023-05-01T00:46:07.657Z,7.10
2023-05-01T00:46:40.360Z,7.10
2023-05-01T00:47:13.021Z,8.20
2023-05-01T00:47:45.753Z,7.70
2023-05-01T00:48:18.404Z,7.80
2023-05-01T00:48:51.045Z,7.30
2023-05-01T00:49:23.718Z,8.20
2023-05-01T00:49:56.629Z,7.60
2023-05-01T00:50:23.015Z,7.40
2023-05-01T00:50:55.686Z,7.50
2023-05-01T00:51:28.382Z,7.50
2023-05-01T00:52:01.021Z,7.50
2023-05-01T00:52:33.708Z,7.20
2023-05-01T00:53:06.398Z,7.70
2023-05-01T00:53:39.069Z,8.00
2023-05-01T00:54:11.744Z,7.90
2023-05-01T00:54:44.431Z,7.80
2023-05-01T00:55:17.086Z,7.50
2023-05-01T00:55:49.758Z,7.60
2023-05-01T00:56:22.439Z,7.90
2023-05-01T00:56:55.241Z,7.60
2023-05-01T00:57:27.906Z,7.80
2023-05-01T00:58:00.541Z,7.30
2023-05-01T00:58:33.194Z,7.40
2023-05-01T00:59:05.861Z,7.40
2023-05-01T00:59:38.559Z,7.60
2023-05-01T01:00:11.189Z,7.20
2023-05-01T01:00:43.940Z,7.20
2023-05-01T01:01:16.670Z,6.90
2023-05-01T01:01:49.356Z,7.20
2023-05-01T01:02:22.104Z,7.30
2023-05-01T01:02:54.788Z,7.30
2023-05-01T01:03:27.450Z,7.50
2023-05-01T01:04:00.175Z,7.10
2023-05-01T01:04:32.965Z,7.10
2023-05-01T01:05:05.616Z,6.80
2023-05-01T01:05:38.291Z,7.50
2023-05-01T01:06:11.038Z,7.00
2023-05-01T01:06:43.906Z,7.00
2023-05-01T01:07:10.195Z,6.90
2023-05-01T01:07:42.861Z,7.10
2023-05-01T01:08:15.533Z,6.90
2023-05-01T01:08:48.221Z,6.80
2023-05-01T01:09:20.867Z,6.90
2023-05-01T01:09:53.823Z,7.00
2023-05-01T01:10:20.168Z,7.00
2023-05-01T01:10:52.870Z,6.80
2023-05-01T01:11:25.501Z,7.00
2023-05-01T01:11:58.200Z,7.20
2023-05-01T01:12:30.847Z,6.90
2023-05-01T01:13:03.510Z,7.50
2023-05-01T01:13:36.180Z,7.00
2023-05-01T01:14:08.855Z,7.40
2023-05-01T01:14:41.531Z,7.20
2023-05-01T01:15:14.216Z,7.20
2023-05-01T01:15:46.938Z,7.10
2023-05-01T01:16:19.583Z,7.40
2023-05-01T01:16:52.272Z,7.90
2023-05-01T01:17:24.954Z,7.60
2023-05-01T01:17:57.672Z,7.70
2023-05-01T01:18:30.344Z,7.70
2023-05-01T01:19:03.034Z,7.00
2023-05-01T01:19:35.682Z,7.20
2023-05-01T01:20:08.357Z,6.90
2023-05-01T01:20:41.035Z,6.90
2023-05-01T01:21:13.703Z,7.60
2023-05-01T01:21:46.365Z,7.30
2023-05-01T01:22:19.063Z,7.20
2023-05-01T01:22:51.709Z,7.30
2023-05-01T01:23:24.380Z,6.60
2023-05-01T01:23:57.043Z,7.30
2023-05-01T01:24:29.704Z,7.20
2023-05-01T01:25:02.365Z,6.80
2023-05-01T01:25:35.049Z,6.50
2023-05-01T01:26:07.717Z,6.70
2023-05-01T01:26:40.388Z,6.50
2023-05-01T01:27:13.103Z,7.00
2023-05-01T01:27:45.742Z,6.80
2023-05-01T01:28:18.412Z,6.90
2023-05-01T01:28:51.091Z,6.70
2023-05-01T01:29:23.746Z,6.50
2023-05-01T01:29:56.796Z,6.90
2023-05-01T01:30:23.191Z,6.90
2023-05-01T01:30:55.936Z,6.30
2023-05-01T01:31:28.637Z,6.70
2023-05-01T01:32:01.296Z,7.20
2023-05-01T01:32:33.952Z,6.40
2023-05-01T01:33:06.669Z,7.00
2023-05-01T01:33:39.352Z,6.30
2023-05-01T01:34:12.007Z,6.20
2023-05-01T01:34:44.668Z,6.20
2023-05-01T01:35:17.355Z,6.70
2023-05-01T01:35:50.057Z,6.90
2023-05-01T01:36:22.772Z,6.90
2023-05-01T01:36:55.418Z,6.50
2023-05-01T01:37:28.097Z,6.70
2023-05-01T01:38:00.754Z,6.70
2023-05-01T01:38:33.428Z,6.80
2023-05-01T01:39:06.102Z,7.10
2023-05-01T01:39:38.782Z,7.20
2023-05-01T01:40:11.443Z,7.10
2023-05-01T01:40:44.122Z,7.40
2023-05-01T01:41:16.793Z,7.00
2023-05-01T01:41:49.457Z,7.10
2023-05-01T01:42:22.161Z,7.20
2023-05-01T01:42:54.832Z,6.90
2023-05-01T01:43:27.469Z,7.20
2023-05-01T01:44:00.146Z,7.10
2023-05-01T01:44:32.793Z,7.10
2023-05-01T01:45:05.466Z,7.20
2023-05-01T01:45:38.123Z,6.80
2023-05-01T01:46:10.930Z,6.80
2023-05-01T01:46:43.781Z,6.60
2023-05-01T01:47:16.506Z,6.80
2023-05-01T01:47:49.217Z,7.00
2023-05-01T01:48:21.874Z,6.90
2023-05-01T01:48:54.546Z,6.90
2023-05-01T01:49:27.266Z,6.70
2023-05-01T01:49:59.907Z,6.70
2023-05-01T01:50:32.573Z,6.70
2023-05-01T01:51:05.268Z,6.30
2023-05-01T01:51:37.936Z,6.80
2023-05-01T01:52:10.605Z,6.20
2023-05-01T01:52:43.294Z,6.60
2023-05-01T01:53:15.945Z,6.60
2023-05-01T01:53:48.629Z,6.10
2023-05-01T01:54:21.289Z,6.70
2023-05-01T01:54:53.969Z,6.80
2023-05-01T01:55:26.618Z,7.00
2023-05-01T01:56:00.261Z,6.30
2023-05-01T01:56:27.464Z,6.50
2023-05-01T01:57:00.129Z,6.40
2023-05-01T01:57:32.818Z,6.60
2023-05-01T01:58:05.458Z,6.30
2023-05-01T01:58:38.119Z,6.60
2023-05-01T01:59:10.809Z,6.60
2023-05-01T01:59:43.462Z,6.70
2023-05-01T02:00:16.128Z,6.50
2023-05-01T02:00:48.798Z,6.80
2023-05-01T02:01:21.515Z,7.10
2023-05-01T02:01:54.280Z,6.60
2023-05-01T02:02:27.176Z,6.70
2023-05-01T02:02:59.959Z,6.40
2023-05-01T02:03:32.799Z,6.90
2023-05-01T02:04:05.598Z,6.70
2023-05-01T02:04:38.275Z,6.90
2023-05-01T02:05:10.928Z,6.40
2023-05-01T02:05:43.646Z,6.40
2023-05-01T02:06:16.305Z,6.70
2023-05-01T02:06:49.036Z,6.40
2023-05-01T02:07:21.762Z,6.50
2023-05-01T02:07:54.413Z,6.60
2023-05-01T02:08:27.096Z,6.50
2023-05-01T02:08:59.784Z,6.50
2023-05-01T02:09:32.429Z,6.20
2023-05-01T02:10:05.109Z,6.20
2023-05-01T02:10:37.769Z,6.60
2023-05-01T02:11:10.452Z,6.90
2023-05-01T02:11:43.129Z,6.30
2023-05-01T02:12:15.844Z,6.50
2023-05-01T02:12:48.512Z,6.30
2023-05-01T02:13:21.150Z,6.40
2023-05-01T02:13:53.821Z,6.30
2023-05-01T02:14:26.509Z,6.30
2023-05-01T02:14:59.159Z,6.40
2023-05-01T02:15:31.859Z,6.40
2023-05-01T02:16:04.591Z,5.80
2023-05-01T02:16:37.438Z,6.10
2023-05-01T02:17:10.115Z,6.10
2023-05-01T02:17:42.814Z,6.30
2023-05-01T02:18:15.485Z,6.50
2023-05-01T02:18:48.172Z,6.20
2023-05-01T02:19:20.850Z,6.80
2023-05-01T02:19:53.674Z,6.50
2023-05-01T02:20:26.480Z,6.60
2023-05-01T02:20:59.164Z,6.00
2023-05-01T02:21:31.829Z,6.10
2023-05-01T02:22:04.513Z,6.50
2023-05-01T02:22:37.188Z,6.00
2023-05-01T02:23:09.859Z,5.90
2023-05-01T02:23:42.531Z,6.20
2023-05-01T02:24:15.190Z,6.50
2023-05-01T02:24:47.854Z,6.40
2023-05-01T02:25:20.523Z,6.30
2023-05-01T02:25:53.244Z,6.70
2023-05-01T02:26:24.304Z,6.60
2023-05-01T02:26:57.120Z,6.00
2023-05-01T02:27:29.764Z,6.20
2023-05-01T02:28:02.439Z,6.20
2023-05-01T02:28:35.096Z,6.40
2023-05-01T02:29:07.776Z,6.10
2023-05-01T02:29:40.412Z,6.30
2023-05-01T02:30:13.079Z,5.60
2023-05-01T02:30:45.762Z,5.70
2023-05-01T02:31:18.482Z,5.70
2023-05-01T02:31:45.020Z,6.10
2023-05-01T02:32:17.737Z,6.20
2023-05-01T02:32:50.463Z,6.20
2023-05-01T02:33:23.141Z,5.80
2023-05-01T02:33:55.805Z,5.90
2023-05-01T02:34:28.481Z,5.90
2023-05-01T02:35:01.146Z,6.00
2023-05-01T02:35:33.800Z,6.30
2023-05-01T02:36:06.477Z,6.20
2023-05-01T02:36:39.138Z,6.30
2023-05-01T02:37:11.803Z,6.90
2023-05-01T02:37:44.474Z,6.40
2023-05-01T02:38:17.147Z,6.20
2023-05-01T02:38:49.802Z,6.10
2023-05-01T02:39:22.486Z,6.20
2023-05-01T02:39:55.354Z,6.30
2023-05-01T02:40:21.686Z,6.10
2023-05-01T02:40:54.364Z,6.00
2023-05-01T02:41:27.030Z,6.00
2023-05-01T02:41:59.704Z,5.70
2023-05-01T02:42:32.366Z,5.90
2023-05-01T02:43:05.080Z,6.30
2023-05-01T02:43:37.724Z,6.30
2023-05-01T02:44:10.392Z,6.00
2023-05-01T02:44:43.071Z,5.80
2023-05-01T02:45:15.733Z,6.30
2023-05-01T02:45:48.520Z,6.40
2023-05-01T02:46:21.334Z,5.90
2023-05-01T02:46:54.178Z,5.80
2023-05-01T02:47:26.963Z,6.10
2023-05-01T02:47:59.708Z,6.30
2023-05-01T02:48:32.490Z,6.30
2023-05-01T02:49:05.178Z,6.00
2023-05-01T02:49:37.832Z,6.10
2023-05-01T02:50:10.501Z,6.20
2023-05-01T02:50:43.189Z,5.70
2023-05-01T02:51:15.853Z,5.80
2023-05-01T02:51:48.514Z,5.80
2023-05-01T02:52:21.183Z,5.70
2023-05-01T02:52:53.845Z,5.90
2023-05-01T02:53:26.529Z,6.00
2023-05-01T02:53:59.216Z,6.10
2023-05-01T02:54:31.887Z,5.60
2023-05-01T02:55:04.555Z,5.90
2023-05-01T02:55:37.238Z,5.90
2023-05-01T02:56:09.908Z,6.10
2023-05-01T02:56:42.625Z,6.10
2023-05-01T02:57:15.297Z,6.10
2023-05-01T02:57:47.961Z,5.90
2023-05-01T02:58:20.654Z,5.80
2023-05-01T02:58:53.303Z,6.10
2023-05-01T02:59:25.967Z,6.10
2023-05-01T02:59:58.673Z,6.10
2023-05-01T03:00:31.307Z,6.00
2023-05-01T03:01:04.026Z,6.00
2023-05-01T03:01:36.752Z,5.80
2023-05-01T03:02:09.446Z,5.90
2023-05-01T03:02:42.159Z,5.70
2023-05-01T03:03:14.933Z,5.80
2023-05-01T03:03:47.613Z,6.00
2023-05-01T03:04:20.268Z,5.80
2023-05-01T03:04:52.975Z,6.00
2023-05-01T03:05:25.694Z,5.90
2023-05-01T03:05:58.413Z,5.90
2023-05-01T03:06:31.176Z,6.00
2023-05-01T03:07:03.904Z,5.90
2023-05-01T03:07:36.565Z,6.00
2023-05-01T03:08:09.234Z,6.10
2023-05-01T03:08:41.903Z,5.80
2023-05-01T03:09:14.568Z,5.90
2023-05-01T03:09:47.231Z,6.00
2023-05-01T03:10:19.953Z,5.90
2023-05-01T03:10:52.616Z,6.00
2023-05-01T03:11:25.268Z,6.10
2023-05-01T03:11:58.051Z,6.00
2023-05-01T03:12:30.680Z,6.10
2023-05-01T03:13:03.360Z,5.70
2023-05-01T03:13:36.054Z,6.10
2023-05-01T03:14:08.695Z,6.00
2023-05-01T03:14:41.360Z,6.00
2023-05-01T03:15:14.014Z,5.50
2023-05-01T03:15:46.695Z,6.10
2023-05-01T03:16:19.433Z,5.80
2023-05-01T03:16:52.179Z,5.80
2023-05-01T03:17:24.907Z,5.50
2023-05-01T03:17:57.647Z,5.80
2023-05-01T03:18:30.314Z,5.50
2023-05-01T03:19:02.984Z,6.10
2023-05-01T03:19:35.646Z,5.90
2023-05-01T03:20:08.327Z,6.10
2023-05-01T03:20:41.054Z,6.00
2023-05-01T03:21:13.687Z,5.90
2023-05-01T03:21:46.367Z,5.80
2023-05-01T03:22:19.036Z,6.10
2023-05-01T03:22:51.710Z,5.80
2023-05-01T03:23:24.482Z,5.90
2023-05-01T03:23:57.152Z,5.70
2023-05-01T03:24:29.810Z,5.90
2023-05-01T03:25:02.476Z,6.10
2023-05-01T03:25:35.134Z,6.10
2023-05-01T03:26:07.828Z,5.80
2023-05-01T03:26:40.506Z,5.80
2023-05-01T03:27:13.195Z,5.90
2023-05-01T03:27:45.839Z,5.70
2023-05-01T03:28:18.512Z,5.70
2023-05-01T03:28:51.199Z,6.00
2023-05-01T03:29:23.838Z,5.80
2023-05-01T03:29:56.730Z,5.80
2023-05-01T03:30:23.058Z,5.80
2023-05-01T03:30:55.721Z,5.80
2023-05-01T03:31:28.433Z,5.70
2023-05-01T03:32:01.096Z,5.70
2023-05-01T03:32:33.803Z,5.60
2023-05-01T03:33:06.492Z,5.50
2023-05-01T03:33:39.163Z,5.80
2023-05-01T03:34:11.810Z,5.70
2023-05-01T03:34:44.491Z,5.70
2023-05-01T03:35:17.189Z,5.60
2023-05-01T03:35:49.883Z,6.00
2023-05-01T03:36:22.558Z,5.70
2023-05-01T03:36:55.244Z,5.50
2023-05-01T03:37:27.910Z,6.00
2023-05-01T03:38:00.560Z,5.70
2023-05-01T03:38:33.240Z,6.20
2023-05-01T03:39:05.912Z,5.80
2023-05-01T03:39:38.580Z,6.00
2023-05-01T03:40:11.247Z,6.20
2023-05-01T03:40:43.947Z,6.00
2023-05-01T03:41:16.638Z,6.00
2023-05-01T03:41:49.311Z,6.30
2023-05-01T03:42:21.958Z,6.30
2023-05-01T03:42:54.615Z,5.80
2023-05-01T03:43:27.283Z,6.40
2023-05-01T03:43:59.971Z,6.20
2023-05-01T03:44:32.628Z,6.50
2023-05-01T03:45:05.306Z,6.30
2023-05-01T03:45:37.999Z,6.60
2023-05-01T03:46:10.664Z,6.40
2023-05-01T03:46:43.361Z,6.20
2023-05-01T03:47:16.010Z,6.80
2023-05-01T03:47:48.721Z,6.60
2023-05-01T03:48:21.423Z,7.10
2023-05-01T03:48:54.072Z,6.40
2023-05-01T03:49:26.732Z,6.50
2023-05-01T03:49:59.474Z,6.70
2023-05-01T03:50:32.136Z,6.70
2023-05-01T03:51:03.250Z,6.70
2023-05-01T03:51:35.911Z,6.30
2023-05-01T03:52:08.564Z,6.50
2023-05-01T03:52:41.240Z,6.40
2023-05-01T03:53:13.896Z,6.70
2023-05-01T03:53:46.565Z,6.70
2023-05-01T03:54:19.254Z,6.50
2023-05-01T03:54:51.936Z,7.10
2023-05-01T03:55:24.583Z,7.70
2023-05-01T03:55:57.275Z,6.80
2023-05-01T03:56:29.944Z,6.90
2023-05-01T03:57:02.682Z,6.60
2023-05-01T03:57:35.332Z,7.20
2023-05-01T03:58:08.005Z,6.60
2023-05-01T03:58:40.678Z,7.10
2023-05-01T03:59:13.407Z,7.10
2023-05-01T03:59:46.034Z,6.70
2023-05-01T04:00:18.708Z,7.00
2023-05-01T04:00:51.408Z,7.00
2023-05-01T04:01:24.099Z,7.50
2023-05-01T04:01:56.762Z,7.10
2023-05-01T04:02:29.508Z,7.30
2023-05-01T04:03:02.680Z,6.80
2023-05-01T04:03:33.354Z,7.00
2023-05-01T04:04:06.170Z,7.60
2023-05-01T04:04:39.000Z,7.00
2023-05-01T04:05:11.671Z,7.50
2023-05-01T04:05:44.344Z,7.50
2023-05-01T04:06:17.179Z,7.50
2023-05-01T04:06:50.037Z,7.80
2023-05-01T04:07:22.701Z,8.10
2023-05-01T04:07:55.366Z,7.80
2023-05-01T04:08:28.041Z,7.90
2023-05-01T04:09:00.695Z,8.10
2023-05-01T04:09:33.376Z,7.90
2023-05-01T04:10:06.030Z,8.00
2023-05-01T04:10:38.706Z,8.10
2023-05-01T04:11:11.365Z,7.90
2023-05-01T04:11:44.033Z,7.50
2023-05-01T04:12:16.700Z,7.60
2023-05-01T04:12:49.371Z,7.60
2023-05-01T04:13:22.029Z,8.10
2023-05-01T04:13:54.699Z,7.50
2023-05-01T04:14:27.399Z,7.60
2023-05-01T04:15:00.035Z,7.30
2023-05-01T04:15:32.722Z,8.20
2023-05-01T04:16:05.437Z,8.00
2023-05-01T04:16:38.140Z,8.50
2023-05-01T04:17:10.800Z,8.50
2023-05-01T04:17:43.525Z,8.80
2023-05-01T04:18:16.259Z,9.00
2023-05-01T04:18:48.949Z,8.60
2023-05-01T04:19:21.604Z,9.20
2023-05-01T04:19:54.724Z,8.90
2023-05-01T04:20:21.102Z,8.80
2023-05-01T04:20:53.770Z,8.70
2023-05-01T04:21:26.440Z,8.50
2023-05-01T04:21:59.101Z,8.00
2023-05-01T04:22:31.768Z,8.10
2023-05-01T04:23:04.445Z,7.90
2023-05-01T04:23:37.139Z,8.30
2023-05-01T04:24:08.207Z,8.00
2023-05-01T04:24:40.886Z,7.90
2023-05-01T04:25:13.541Z,7.50
2023-05-01T04:25:46.224Z,7.40
2023-05-01T04:26:18.889Z,7.20
2023-05-01T04:26:51.580Z,7.20
2023-05-01T04:27:24.235Z,7.00
2023-05-01T04:27:56.895Z,7.10
2023-05-01T04:28:29.554Z,6.60
2023-05-01T04:29:02.230Z,7.50
2023-05-01T04:29:35.056Z,6.90
2023-05-01T04:30:07.718Z,7.00
2023-05-01T04:30:40.388Z,6.80
2023-05-01T04:31:13.119Z,7.10
2023-05-01T04:31:45.819Z,6.40
2023-05-01T04:32:18.474Z,6.50
2023-05-01T04:32:51.181Z,6.80
2023-05-01T04:33:23.880Z,6.20
2023-05-01T04:33:56.527Z,6.30
2023-05-01T04:34:29.216Z,6.70
2023-05-01T04:35:01.883Z,6.20
2023-05-01T04:35:34.548Z,6.30
2023-05-01T04:36:07.234Z,6.70
2023-05-01T04:36:39.913Z,6.10
2023-05-01T04:37:12.611Z,6.20
2023-05-01T04:37:45.236Z,6.10
2023-05-01T04:38:17.916Z,6.40
2023-05-01T04:38:50.554Z,5.60
2023-05-01T04:39:23.221Z,6.30
2023-05-01T04:39:56.406Z,6.00
2023-05-01T04:40:26.986Z,6.20
2023-05-01T04:40:59.680Z,6.60
2023-05-01T04:41:32.356Z,5.60
2023-05-01T04:42:05.038Z,6.20
2023-05-01T04:42:37.713Z,5.90
2023-05-01T04:43:10.414Z,6.50
2023-05-01T04:43:43.059Z,6.20
2023-05-01T04:44:15.713Z,6.10
2023-05-01T04:44:48.492Z,6.10
2023-05-01T04:45:21.118Z,6.30
2023-05-01T04:45:53.833Z,5.80
2023-05-01T04:46:26.539Z,6.10
2023-05-01T04:46:59.269Z,5.80
2023-05-01T04:47:31.980Z,6.20
2023-05-01T04:48:04.745Z,6.20
2023-05-01T04:48:37.444Z,6.00
2023-05-01T04:49:10.122Z,6.20
2023-05-01T04:49:42.792Z,6.00
2023-05-01T04:50:15.478Z,5.70
2023-05-01T04:50:48.122Z,5.60
2023-05-01T04:51:20.788Z,6.20
2023-05-01T04:51:53.443Z,5.70
2023-05-01T04:52:26.137Z,5.90
2023-05-01T04:52:58.801Z,6.20
2023-05-01T04:53:31.499Z,5.90
2023-05-01T04:54:04.140Z,6.10
2023-05-01T04:54:36.807Z,5.70
2023-05-01T04:55:09.479Z,5.80
2023-05-01T04:55:42.158Z,6.00
2023-05-01T04:56:14.829Z,5.20
2023-05-01T04:56:47.498Z,5.80
2023-05-01T04:57:20.203Z,5.70
2023-05-01T04:57:52.887Z,4.90
2023-05-01T04:58:25.562Z,5.50
2023-05-01T04:58:58.235Z,5.50
2023-05-01T04:59:30.902Z,5.50
2023-05-01T05:00:03.596Z,5.60
2023-05-01T05:00:36.253Z,5.20
2023-05-01T05:01:08.966Z,5.50
2023-05-01T05:01:41.766Z,5.10
2023-05-01T05:02:14.456Z,5.20
2023-05-01T05:02:47.145Z,5.40
2023-05-01T05:03:19.962Z,5.10
2023-05-01T05:03:53.038Z,5.10
2023-05-01T05:04:19.239Z,5.40
2023-05-01T05:04:51.904Z,5.20
2023-05-01T05:05:24.579Z,5.10
2023-05-01T05:05:57.349Z,5.10
2023-05-01T05:06:30.069Z,5.50
2023-05-01T05:07:02.782Z,5.50
2023-05-01T05:07:35.471Z,4.80
2023-05-01T05:08:08.130Z,5.20
2023-05-01T05:08:40.803Z,5.10
2023-05-01T05:09:13.501Z,5.00
2023-05-01T05:09:46.171Z,5.30
2023-05-01T05:10:18.840Z,5.30
2023-05-01T05:10:51.550Z,5.20
2023-05-01T05:11:24.222Z,5.40
2023-05-01T05:11:55.291Z,4.90
2023-05-01T05:12:27.962Z,5.40
2023-05-01T05:13:00.634Z,5.10
2023-05-01T05:13:33.316Z,5.00
2023-05-01T05:14:05.984Z,5.30
2023-05-01T05:14:38.696Z,5.20
2023-05-01T05:15:11.357Z,5.10
2023-05-01T05:15:45.494Z,5.00
2023-05-01T05:16:12.656Z,5.00
2023-05-01T05:16:45.362Z,5.00
2023-05-01T05:17:18.058Z,5.00
2023-05-01T05:17:50.792Z,5.20
2023-05-01T05:18:23.578Z,5.10
2023-05-01T05:18:56.265Z,4.90
2023-05-01T05:19:28.917Z,4.70
2023-05-01T05:20:01.575Z,5.10
2023-05-01T05:20:34.257Z,5.20
2023-05-01T05:21:07.651Z,4.80
2023-05-01T05:21:34.321Z,5.10
2023-05-01T05:22:07.015Z,4.60
2023-05-01T05:22:39.663Z,5.10
2023-05-01T05:23:12.361Z,4.90
2023-05-01T05:23:45.007Z,4.80
2023-05-01T05:24:17.671Z,4.80
2023-05-01T05:24:50.338Z,5.40
2023-05-01T05:25:23.022Z,5.10
2023-05-01T05:25:55.724Z,4.60
2023-05-01T05:26:28.398Z,4.80
2023-05-01T05:27:01.029Z,4.90
2023-05-01T05:27:33.697Z,5.00
2023-05-01T05:28:06.362Z,4.60
2023-05-01T05:28:39.039Z,4.90
2023-05-01T05:29:11.706Z,5.10
2023-05-01T05:29:44.411Z,4.80
2023-05-01T05:30:15.521Z,4.70
2023-05-01T05:30:48.191Z,4.60
2023-05-01T05:31:20.980Z,4.60
2023-05-01T05:31:53.702Z,4.50
2023-05-01T05:32:26.555Z,4.60
2023-05-01T05:32:59.306Z,4.60
2023-05-01T05:33:31.949Z,4.80
2023-05-01T05:34:04.601Z,5.10
2023-05-01T05:34:37.268Z,4.70
2023-05-01T05:35:09.943Z,4.90
2023-05-01T05:35:42.639Z,4.80
2023-05-01T05:36:15.309Z,4.90
2023-05-01T05:36:47.993Z,5.00
2023-05-01T05:37:20.660Z,5.10
2023-05-01T05:37:53.317Z,4.70
2023-05-01T05:38:25.987Z,5.10
2023-05-01T05:38:58.653Z,4.70
2023-05-01T05:39:31.318Z,4.70
2023-05-01T05:40:03.988Z,4.80
2023-05-01T05:40:36.673Z,4.90
2023-05-01T05:41:09.349Z,4.60
2023-05-01T05:41:42.034Z,4.60
2023-05-01T05:42:14.681Z,4.70
2023-05-01T05:42:47.357Z,4.90
2023-05-01T05:43:20.013Z,5.00
2023-05-01T05:43:52.702Z,4.40
2023-05-01T05:44:25.347Z,4.90
2023-05-01T05:44:58.010Z,4.50
2023-05-01T05:45:30.689Z,4.70
2023-05-01T05:46:03.385Z,4.60
2023-05-01T05:46:36.059Z,4.80
2023-05-01T05:47:08.841Z,4.50
2023-05-01T05:47:41.571Z,4.40
2023-05-01T05:48:14.252Z,4.50
2023-05-01T05:48:45.303Z,4.40
2023-05-01T05:49:17.977Z,4.50
2023-05-01T05:49:50.660Z,4.40
2023-05-01T05:50:23.333Z,4.70
2023-05-01T05:50:56.028Z,4.50
2023-05-01T05:51:28.676Z,4.40
2023-05-01T05:52:01.348Z,4.10
2023-05-01T05:52:34.014Z,4.40
2023-05-01T05:53:06.688Z,4.30
2023-05-01T05:53:39.388Z,4.10
2023-05-01T05:54:12.031Z,4.80
2023-05-01T05:54:44.707Z,4.00
2023-05-01T05:55:17.362Z,4.20
2023-05-01T05:55:50.049Z,4.40
2023-05-01T05:56:22.723Z,4.30
2023-05-01T05:56:55.432Z,4.80
2023-05-01T05:57:28.082Z,4.20
2023-05-01T05:58:00.745Z,4.20
2023-05-01T05:58:33.410Z,4.60
2023-05-01T05:59:06.057Z,4.20
2023-05-01T05:59:38.723Z,4.30
2023-05-01T06:00:11.405Z,4.40
2023-05-01T06:00:44.097Z,4.00
2023-05-01T06:01:16.745Z,4.40
2023-05-01T06:01:49.432Z,4.30
2023-05-01T06:02:22.314Z,4.20
2023-05-01T06:02:55.215Z,4.20
2023-05-01T06:03:28.082Z,4.20
2023-05-01T06:04:00.826Z,4.00
2023-05-01T06:04:33.483Z,4.50
2023-05-01T06:05:06.200Z,4.10
2023-05-01T06:05:38.920Z,4.10
2023-05-01T06:06:11.664Z,4.30
2023-05-01T06:06:44.398Z,3.80
2023-05-01T06:07:17.106Z,4.40
2023-05-01T06:07:49.773Z,4.10
2023-05-01T06:08:16.324Z,3.70
2023-05-01T06:08:48.992Z,4.10
2023-05-01T06:09:21.665Z,3.90
2023-05-01T06:09:54.424Z,3.80
2023-05-01T06:10:27.164Z,4.10
2023-05-01T06:10:59.849Z,3.80
2023-05-01T06:11:32.506Z,4.20
2023-05-01T06:12:05.179Z,3.90
2023-05-01T06:12:40.887Z,4.10
2023-05-01T06:13:13.742Z,4.20
2023-05-01T06:13:40.777Z,3.90
2023-05-01T06:14:13.448Z,3.90
2023-05-01T06:14:46.113Z,4.10
2023-05-01T06:15:18.828Z,3.80
2023-05-01T06:15:51.574Z,4.40
2023-05-01T06:16:24.348Z,4.00
2023-05-01T06:16:57.027Z,4.00
2023-05-01T06:17:29.733Z,4.10
2023-05-01T06:18:02.591Z,3.90
2023-05-01T06:18:35.278Z,4.10
2023-05-01T06:19:07.972Z,3.90
2023-05-01T06:19:40.632Z,4.00
2023-05-01T06:20:13.325Z,4.00
2023-05-01T06:20:45.997Z,3.50
2023-05-01T06:21:18.659Z,4.00
2023-05-01T06:21:51.343Z,3.90
2023-05-01T06:22:24.010Z,3.70
2023-05-01T06:22:56.671Z,3.90
2023-05-01T06:23:29.361Z,3.70
2023-05-01T06:24:02.039Z,3.80
2023-05-01T06:24:34.759Z,3.70
2023-05-01T06:25:07.454Z,3.70
2023-05-01T06:25:40.141Z,3.40
2023-05-01T06:26:12.809Z,3.40
2023-05-01T06:26:45.487Z,3.80
2023-05-01T06:27:18.156Z,3.70
2023-05-01T06:27:50.824Z,3.80
2023-05-01T06:28:23.507Z,3.50
2023-05-01T06:28:56.181Z,3.60
2023-05-01T06:29:28.837Z,3.80
2023-05-01T06:30:01.502Z,3.40
2023-05-01T06:30:34.171Z,4.00
2023-05-01T06:31:07.083Z,3.60
2023-05-01T06:31:39.773Z,3.30
2023-05-01T06:32:12.482Z,3.50
2023-05-01T06:32:45.154Z,3.50
2023-05-01T06:33:17.812Z,3.60
2023-05-01T06:33:50.480Z,3.50
2023-05-01T06:34:23.158Z,3.60
2023-05-01T06:34:55.843Z,3.50
2023-05-01T06:35:28.523Z,3.50
2023-05-01T06:36:01.208Z,3.70
2023-05-01T06:36:33.872Z,3.30
2023-05-01T06:37:06.534Z,3.40
2023-05-01T06:37:39.205Z,3.70
2023-05-01T06:38:11.863Z,3.60
2023-05-01T06:38:42.958Z,3.20
2023-05-01T06:39:15.642Z,3.40
2023-05-01T06:39:48.296Z,3.40
2023-05-01T06:40:20.962Z,3.50
2023-05-01T06:40:53.636Z,3.20
2023-05-01T06:41:26.322Z,3.60
2023-05-01T06:41:59.002Z,3.40
2023-05-01T06:42:31.671Z,3.20
2023-05-01T06:43:04.352Z,3.10
2023-05-01T06:43:37.030Z,3.40
2023-05-01T06:44:09.714Z,3.20
2023-05-01T06:44:42.371Z,3.20
2023-05-01T06:45:15.057Z,3.10
2023-05-01T06:45:47.761Z,3.20
2023-05-01T06:46:20.486Z,3.30
2023-05-01T06:46:53.183Z,3.40
2023-05-01T06:47:25.920Z,3.80
2023-05-01T06:47:58.607Z,3.20
2023-05-01T06:48:31.263Z,3.50
2023-05-01T06:49:03.972Z,3.50
2023-05-01T06:49:36.618Z,3.40
2023-05-01T06:50:09.294Z,3.50
2023-05-01T06:50:42.004Z,3.30
2023-05-01T06:51:14.662Z,3.30
2023-05-01T06:51:47.322Z,3.00
2023-05-01T06:52:19.994Z,3.20
2023-05-01T06:52:52.655Z,3.70
2023-05-01T06:53:25.322Z,3.20
2023-05-01T06:53:57.985Z,3.30
2023-05-01T06:54:30.653Z,3.20
2023-05-01T06:55:03.325Z,3.50
2023-05-01T06:55:36.097Z,3.60
2023-05-01T06:56:08.754Z,3.20
2023-05-01T06:56:41.416Z,3.50
2023-05-01T06:57:14.103Z,3.20
2023-05-01T06:57:46.749Z,2.90
2023-05-01T06:58:48.462Z,3.00
2023-05-01T06:59:21.122Z,3.10
2023-05-01T06:59:54.146Z,2.80
2023-05-01T07:00:20.555Z,2.90
2023-05-01T07:00:53.262Z,2.70
2023-05-01T07:01:26.060Z,2.80
2023-05-01T07:01:58.818Z,2.60
2023-05-01T07:02:31.651Z,2.70
2023-05-01T07:03:04.424Z,2.60
2023-05-01T07:03:37.149Z,2.60
2023-05-01T07:04:09.854Z,2.70
2023-05-01T07:04:42.497Z,2.90
2023-05-01T07:05:15.163Z,2.40
2023-05-01T07:05:47.920Z,2.40
2023-05-01T07:06:20.596Z,2.80
2023-05-01T07:06:53.261Z,2.50
2023-05-01T07:07:25.930Z,2.70
2023-05-01T07:08:01.655Z,2.70
2023-05-01T07:08:28.163Z,2.70
2023-05-01T07:09:00.866Z,2.60
2023-05-01T07:09:33.535Z,2.60
2023-05-01T07:10:06.194Z,2.40
2023-05-01T07:10:41.794Z,2.50
2023-05-01T07:11:08.300Z,2.60
2023-05-01T07:11:40.969Z,2.50
2023-05-01T07:12:13.645Z,2.60
2023-05-01T07:12:46.323Z,2.50
2023-05-01T07:13:18.984Z,2.70
2023-05-01T07:13:51.651Z,2.70